K6P9

Ranger Airport

Ranger, Texas, USA
METAR K6P9 251835Z AUTO 20006KT 10SM SCT045 29/18 A2995 RMK AO2 T02910182
Observed Flight Rules
Sep-25 @ 18:35 UTC (27 minutes ago) Visual Flight Rules
Wind Visibility Clouds
200° at 6 knots 10 miles
  • Scattered at 4,500' AGL
Temperatures Readings
Current 29°C / 84°F
Dewpoint 18°C / 64°F
Humidity 51%
Altimeter 29.95" Hg
Pressure 1014 hPa
Elevation 449
METAR K6P9 251835Z AUTO 20006KT 10SM SCT045 29/18 A2995 RMK AO2 T02910182
Observed Flight Rules
Sep-25 @ 18:35 UTC
(27 minutes ago)
VFR
Wind Visibility
200° at 6 knots 10 miles
Clouds
  • Scattered at 4,500' AGL
Temperature Dewpoint
29°C / 84°F 18°C / 64°F
Humidity Altimeter Pressure
51% 29.95" Hg 1014 hPa